Terminal Aerodrome Forecast
Issued by NWS Sterling, VA

Current Version | Previous Version | Text Only | Print | Product List | Glossary Off
Versions: 1 2 3 4 5 6 7 8 9 10 11 12 13 14

000
FTUS41 KLWX 202300
TAFMRB
TAF
KMRB 202335Z 2100/2124 29009KT P6SM FEW250
     FM211400 30013KT P6SM FEW250
     FM211500 30014KT P6SM FEW050
     FM212200 31009KT P6SM SKC=

USA.gov is the U.S. government's official web portal to all federal, state and local government web resources and services.